createdAt,value
2022-08-17T00:03:06.052Z,4.18
2022-08-17T00:08:08.227Z,4.82
2022-08-17T00:13:18.447Z,5.60
2022-08-17T00:19:01.092Z,8.18
2022-08-17T00:23:46.219Z,7.10
2022-08-17T00:28:51.225Z,4.05
2022-08-17T00:33:54.486Z,4.82
2022-08-17T00:38:55.978Z,4.18
2022-08-17T00:44:01.127Z,5.18
2022-08-17T00:49:03.773Z,4.15
2022-08-17T00:54:20.448Z,6.45
2022-08-17T00:59:24.942Z,6.10
2022-08-17T01:04:29.347Z,3.90
2022-08-17T01:09:33.885Z,5.05
2022-08-17T01:14:35.517Z,5.82
2022-08-17T01:19:43.217Z,5.95
2022-08-17T01:24:49.774Z,9.65
2022-08-17T01:29:57.881Z,6.03
2022-08-17T01:35:02.957Z,5.35
2022-08-17T01:40:35.277Z,5.03
2022-08-17T01:45:44.626Z,5.43
2022-08-17T01:50:48.558Z,5.72
2022-08-17T01:56:07.155Z,6.38
2022-08-17T02:01:10.262Z,4.80
2022-08-17T02:06:12.182Z,8.48
2022-08-17T02:11:29.688Z,5.93
2022-08-17T02:16:37.406Z,6.28
2022-08-17T02:21:41.524Z,5.10
2022-08-17T02:26:43.200Z,7.60
2022-08-17T02:31:45.838Z,8.52
2022-08-17T02:36:47.680Z,6.63
2022-08-17T02:41:49.287Z,5.28
2022-08-17T02:46:51.813Z,4.38
2022-08-17T02:51:53.316Z,5.20
2022-08-17T02:56:55.062Z,5.28
2022-08-17T03:01:56.893Z,8.05
2022-08-17T03:06:58.670Z,6.40
2022-08-17T03:12:09.097Z,9.18
2022-08-17T03:17:17.169Z,7.45
2022-08-17T03:22:35.548Z,9.93
2022-08-17T03:27:39.517Z,12.17
2022-08-17T03:32:49.216Z,9.30
2022-08-17T03:37:59.974Z,8.30
2022-08-17T03:43:08.014Z,11.73
2022-08-17T03:48:29.599Z,8.43
2022-08-17T03:53:49.696Z,10.30
2022-08-17T03:58:51.182Z,8.77
2022-08-17T04:03:52.741Z,7.75
2022-08-17T04:08:54.275Z,10.23
2022-08-17T04:13:56.774Z,8.43
2022-08-17T04:18:58.313Z,9.77
2022-08-17T04:24:00.210Z,10.00
2022-08-17T04:29:03.769Z,11.55
2022-08-17T04:34:05.459Z,9.07
2022-08-17T04:39:07.007Z,8.98
2022-08-17T04:44:08.603Z,8.45
2022-08-17T04:49:11.365Z,8.85
2022-08-17T04:54:18.487Z,9.07
2022-08-17T04:59:22.205Z,10.07
2022-08-17T05:04:34.153Z,9.27
2022-08-17T05:09:36.732Z,10.45
2022-08-17T05:14:39.535Z,8.52
2022-08-17T05:19:41.678Z,4.90
2022-08-17T05:24:53.402Z,9.48
2022-08-17T05:29:55.815Z,8.80
2022-08-17T05:35:00.040Z,8.30
2022-08-17T05:40:01.751Z,7.05
2022-08-17T05:45:07.231Z,5.65
2022-08-17T05:50:13.409Z,8.35
2022-08-17T05:55:34.998Z,5.95
2022-08-17T06:01:10.263Z,6.15
2022-08-17T06:06:31.872Z,7.03
2022-08-17T06:11:46.892Z,6.15
2022-08-17T06:17:01.085Z,6.18
2022-08-17T06:22:05.793Z,9.07
2022-08-17T06:27:19.658Z,10.93
2022-08-17T06:32:21.285Z,7.22
2022-08-17T06:37:44.046Z,6.72
2022-08-17T06:43:22.574Z,11.90
2022-08-17T06:48:39.399Z,11.63
2022-08-17T06:53:55.525Z,12.18
2022-08-17T06:58:58.973Z,8.77
2022-08-17T07:04:14.222Z,7.47
2022-08-17T07:09:35.767Z,7.20
2022-08-17T07:14:52.815Z,13.50
2022-08-17T07:20:05.347Z,9.43
2022-08-17T07:25:13.320Z,12.88
2022-08-17T07:30:21.966Z,9.80
2022-08-17T07:35:31.241Z,7.45
2022-08-17T07:41:02.070Z,8.93
2022-08-17T07:46:31.191Z,8.35
2022-08-17T07:51:37.411Z,9.95
2022-08-17T07:56:45.458Z,8.50
2022-08-17T08:02:26.435Z,8.57
2022-08-17T08:07:38.711Z,13.60
2022-08-17T08:12:46.727Z,10.13
2022-08-17T08:17:53.375Z,9.02
2022-08-17T08:23:23.313Z,6.75
2022-08-17T08:28:33.989Z,8.07
2022-08-17T08:33:56.345Z,6.28
2022-08-17T08:39:06.364Z,7.43
2022-08-17T08:44:13.920Z,6.13
2022-08-17T08:50:03.238Z,6.50
2022-08-17T08:55:24.652Z,4.10
2022-08-17T09:00:27.748Z,4.22
2022-08-17T09:05:52.741Z,3.85
2022-08-17T09:12:01.405Z,3.63
2022-08-17T09:17:09.384Z,4.20
2022-08-17T09:22:33.467Z,6.45
2022-08-17T09:27:53.492Z,9.87
2022-08-17T09:33:02.226Z,11.77
2022-08-17T09:38:32.711Z,7.88
2022-08-17T09:43:56.704Z,11.77
2022-08-17T09:49:09.763Z,10.85
2022-08-17T09:54:39.943Z,12.48
2022-08-17T09:59:44.785Z,13.60
2022-08-17T10:04:55.063Z,12.23
2022-08-17T10:09:56.544Z,10.45
2022-08-17T10:15:49.535Z,9.35
2022-08-17T10:21:26.354Z,9.00
2022-08-17T10:26:46.282Z,7.93
2022-08-17T10:32:05.955Z,8.05
2022-08-17T10:37:13.105Z,9.35
2022-08-17T10:42:30.535Z,6.47
2022-08-17T10:48:22.283Z,5.95
2022-08-17T10:53:32.862Z,6.83
2022-08-17T10:58:45.319Z,7.13
2022-08-17T11:03:56.698Z,5.50
2022-08-17T11:09:10.982Z,4.85
2022-08-17T11:14:48.478Z,6.15
2022-08-17T11:19:58.701Z,5.10
2022-08-17T11:25:18.983Z,4.40
2022-08-17T11:30:41.060Z,6.03
2022-08-17T11:35:51.484Z,4.10
2022-08-17T11:41:08.257Z,6.05
2022-08-17T11:47:06.169Z,3.05
2022-08-17T11:52:32.252Z,3.38
2022-08-17T11:57:34.086Z,3.88
2022-08-17T12:02:47.393Z,4.35
2022-08-17T12:07:57.502Z,5.15
2022-08-17T12:13:04.468Z,4.07
2022-08-17T12:18:05.917Z,5.40
2022-08-17T12:23:33.798Z,5.85
2022-08-17T12:28:38.949Z,4.15
2022-08-17T12:33:44.514Z,4.00
2022-08-17T12:39:14.071Z,4.28
2022-08-17T12:44:23.183Z,3.75
2022-08-17T12:49:29.951Z,4.45
2022-08-17T12:54:57.205Z,3.75
2022-08-17T13:00:02.878Z,5.78
2022-08-17T13:05:05.606Z,5.18
2022-08-17T13:10:07.146Z,4.13
2022-08-17T13:15:19.642Z,3.33
2022-08-17T13:20:21.165Z,3.72
2022-08-17T13:25:23.232Z,3.95
2022-08-17T13:30:29.104Z,3.53
2022-08-17T13:35:39.398Z,5.60
2022-08-17T13:40:53.052Z,3.67
2022-08-17T13:46:09.250Z,4.43
2022-08-17T13:51:23.952Z,5.18
2022-08-17T13:56:38.250Z,4.38
2022-08-17T14:01:53.850Z,3.63
2022-08-17T14:07:24.003Z,4.43
2022-08-17T14:12:27.458Z,4.95
2022-08-17T14:17:35.002Z,4.93
2022-08-17T14:22:44.988Z,4.82
2022-08-17T14:27:53.557Z,3.72
2022-08-17T14:32:56.526Z,4.60
2022-08-17T14:37:59.230Z,4.00
2022-08-17T14:43:01.298Z,3.85
2022-08-17T14:48:07.576Z,3.90
2022-08-17T14:53:12.717Z,4.57
2022-08-17T14:58:14.206Z,3.90
2022-08-17T15:03:16.893Z,12.93
2022-08-17T15:08:19.551Z,4.45
2022-08-17T15:13:26.485Z,3.72
2022-08-17T15:18:29.464Z,4.10
2022-08-17T15:23:31.898Z,4.57
2022-08-17T15:28:33.928Z,4.20
2022-08-17T15:33:35.689Z,3.85
2022-08-17T15:38:41.137Z,3.95
2022-08-17T15:43:48.534Z,3.50
2022-08-17T15:48:54.830Z,3.75
2022-08-17T15:54:04.524Z,4.25
2022-08-17T15:59:20.937Z,6.45
2022-08-17T16:04:29.883Z,5.22
2022-08-17T16:09:32.613Z,4.70
2022-08-17T16:14:35.038Z,3.88
2022-08-17T16:19:38.845Z,5.70
2022-08-17T16:24:56.808Z,5.28
2022-08-17T16:29:58.831Z,3.60
2022-08-17T16:35:09.730Z,6.15
2022-08-17T16:40:11.961Z,4.28
2022-08-17T16:45:16.997Z,4.43
2022-08-17T16:50:21.751Z,4.43
2022-08-17T16:55:23.330Z,4.13
2022-08-17T17:00:24.765Z,4.88
2022-08-17T17:05:57.730Z,3.70
2022-08-17T17:11:08.998Z,5.20
2022-08-17T17:16:26.364Z,4.40
2022-08-17T17:21:37.688Z,4.45
2022-08-17T17:26:45.533Z,4.32
2022-08-17T17:32:13.657Z,5.40
2022-08-17T17:37:26.309Z,4.90
2022-08-17T17:42:31.515Z,4.38
2022-08-17T17:47:33.270Z,4.35
2022-08-17T17:52:56.352Z,4.78
2022-08-17T17:58:05.183Z,6.00
2022-08-17T18:03:25.279Z,5.05
2022-08-17T18:08:49.207Z,4.88
2022-08-17T18:14:02.415Z,5.18
2022-08-17T18:19:03.930Z,4.93
2022-08-17T18:24:08.854Z,4.85
2022-08-17T18:29:16.015Z,4.72
2022-08-17T18:34:46.047Z,5.15
2022-08-17T18:39:46.521Z,6.28
2022-08-17T18:44:51.742Z,4.45
2022-08-17T18:50:33.586Z,4.47
2022-08-17T18:55:35.306Z,6.45
2022-08-17T19:00:41.491Z,5.47
2022-08-17T19:05:45.998Z,5.13
2022-08-17T19:10:51.255Z,5.70
2022-08-17T19:16:20.067Z,7.00
2022-08-17T19:21:27.438Z,5.00
2022-08-17T19:26:54.392Z,6.47
2022-08-17T19:31:58.745Z,5.93
2022-08-17T19:37:07.487Z,7.55
2022-08-17T19:42:32.462Z,4.97
2022-08-17T19:47:57.857Z,6.72
2022-08-17T19:53:33.215Z,7.38
2022-08-17T19:59:01.228Z,7.30
2022-08-17T20:04:14.430Z,6.53
2022-08-17T20:09:29.604Z,5.80
2022-08-17T20:14:53.258Z,4.82
2022-08-17T20:25:38.018Z,5.95
2022-08-17T20:30:42.080Z,6.07
2022-08-17T20:36:01.978Z,5.47
2022-08-17T20:41:03.900Z,6.18
2022-08-17T20:46:43.926Z,6.65
2022-08-17T20:52:02.327Z,6.47
2022-08-17T20:57:06.796Z,7.53
2022-08-17T21:02:21.610Z,6.97
2022-08-17T21:07:43.580Z,11.05
2022-08-17T21:12:57.886Z,5.38
2022-08-17T21:18:25.951Z,5.15
2022-08-17T21:23:40.319Z,8.32
2022-08-17T21:29:30.306Z,4.82
2022-08-17T21:34:33.723Z,7.93
2022-08-17T21:39:40.500Z,5.85
2022-08-17T21:44:49.372Z,6.57
2022-08-17T21:49:56.520Z,4.90
2022-08-17T21:55:03.284Z,7.88
2022-08-17T22:00:15.607Z,4.55
2022-08-17T22:05:28.933Z,4.80
2022-08-17T22:10:46.287Z,5.15
2022-08-17T22:15:50.999Z,4.72
2022-08-17T22:20:56.039Z,5.15
2022-08-17T22:26:04.327Z,6.00
2022-08-17T22:31:07.349Z,5.63
2022-08-17T22:36:26.863Z,3.95
2022-08-17T22:41:52.129Z,4.72
2022-08-17T22:47:01.826Z,4.88
2022-08-17T22:52:16.733Z,5.53
2022-08-17T22:57:43.599Z,5.53
2022-08-17T23:03:09.396Z,5.10
2022-08-17T23:08:13.561Z,4.80
2022-08-17T23:13:15.075Z,5.50
2022-08-17T23:18:17.580Z,5.80
2022-08-17T23:23:23.399Z,5.07
2022-08-17T23:28:25.203Z,5.80
2022-08-17T23:33:30.584Z,6.40
2022-08-17T23:38:33.237Z,6.47
2022-08-17T23:43:36.343Z,5.88
2022-08-17T23:48:38.172Z,8.38
2022-08-17T23:53:46.144Z,6.65
2022-08-17T23:58:47.565Z,6.10
